Time;durP1;ratioP1;P1;durP2;ratioP2;P2;SDS_P1;SDS_P2;PMS_P1;PMS_P2;Temp;Humidity;BMP_temperature;BMP_pressure;BME280_temperature;BME280_humidity;BME280_pressure;Samples;Min_cycle;Max_cycle;Signal;HPM_P1;HPM_P2
2021/03/19 00:02:51;;;;;;;159.67;52.10;;;;;;;-3.67;69.60;98894.44;2179177;82;21102;-81
2021/03/19 00:05:52;;;;;;;114.85;44.42;;;;;;;-3.64;69.84;98892.09;2179592;82;21133;-81
2021/03/19 00:08:53;;;;;;;153.60;47.63;;;;;;;-3.61;69.86;98896.13;2179313;82;21417;-80
2021/03/19 00:11:54;;;;;;;108.07;42.93;;;;;;;-3.61;69.67;98889.36;2179254;82;21122;-79
2021/03/19 00:14:55;;;;;;;114.93;43.70;;;;;;;-3.60;69.58;98888.57;2179218;82;21118;-79
2021/03/19 00:17:57;;;;;;;123.27;44.10;;;;;;;-3.59;69.75;98889.45;2179300;82;21161;-79
2021/03/19 00:20:58;;;;;;;99.33;37.93;;;;;;;-3.59;69.75;98892.01;2179732;82;21114;-79
2021/03/19 00:23:59;;;;;;;92.90;37.40;;;;;;;-3.58;69.84;98888.67;2162919;82;21430;-80
2021/03/19 00:27:00;;;;;;;99.57;39.80;;;;;;;-3.57;69.78;98889.17;2161573;82;21241;-80
2021/03/19 00:30:01;;;;;;;97.17;38.23;;;;;;;-3.56;69.74;98890.55;2161253;82;21245;-80
2021/03/19 00:33:02;;;;;;;93.90;38.00;;;;;;;-3.53;69.31;98883.48;2160941;82;21249;-80
2021/03/19 00:36:03;;;;;;;92.03;41.67;;;;;;;-3.49;69.32;98890.56;2160856;82;21535;-80
2021/03/19 00:39:04;;;;;;;104.33;40.57;;;;;;;-3.46;69.28;98890.80;2161220;82;21291;-80
2021/03/19 00:42:05;;;;;;;99.10;41.60;;;;;;;-3.46;69.38;98880.59;2161214;82;21114;-80
2021/03/19 00:45:06;;;;;;;101.93;39.20;;;;;;;-3.45;69.33;98877.66;2161691;82;21249;-80
2021/03/19 00:48:07;;;;;;;88.47;37.93;;;;;;;-3.44;69.18;98879.03;2162059;82;21381;-80
2021/03/19 00:51:08;;;;;;;92.20;37.60;;;;;;;-3.46;69.16;98880.59;2161958;82;21413;-80
2021/03/19 00:54:09;;;;;;;93.00;38.03;;;;;;;-3.46;69.38;98874.61;2161641;82;21566;-80
2021/03/19 00:57:11;;;;;;;89.73;35.27;;;;;;;-3.40;69.36;98875.90;2161429;82;21289;-79
2021/03/19 01:00:12;;;;;;;99.30;43.50;;;;;;;-3.32;69.33;98870.91;2160720;82;21095;-79
2021/03/19 01:03:13;;;;;;;86.47;37.07;;;;;;;-3.30;69.37;98877.39;2160651;82;21249;-80
2021/03/19 01:06:14;;;;;;;111.47;41.70;;;;;;;-3.23;69.16;98872.79;2160203;82;21261;-81
2021/03/19 01:09:15;;;;;;;142.20;49.83;;;;;;;-3.17;69.15;98869.75;2160123;82;21146;-79
2021/03/19 01:12:16;;;;;;;139.67;53.57;;;;;;;-3.11;69.36;98871.43;2160519;82;21256;-79
2021/03/19 01:15:17;;;;;;;159.23;58.50;;;;;;;-3.04;69.38;98867.21;2160505;82;21540;-81
2021/03/19 01:18:18;;;;;;;153.07;57.40;;;;;;;-2.96;69.42;98866.03;2160999;82;21162;-80
2021/03/19 01:21:19;;;;;;;167.60;59.63;;;;;;;-2.91;69.35;98865.05;2160757;82;21125;-78
2021/03/19 01:24:20;;;;;;;221.63;62.53;;;;;;;-2.88;69.43;98865.25;2161407;81;21265;-81
2021/03/19 01:27:21;;;;;;;161.97;55.23;;;;;;;-2.81;69.51;98861.03;2161063;82;21552;-80
2021/03/19 01:30:22;;;;;;;136.10;49.47;;;;;;;-2.73;69.58;98864.95;2161231;82;21536;-80
2021/03/19 01:33:23;;;;;;;140.90;55.03;;;;;;;-2.63;69.56;98862.19;2160743;82;21135;-80
2021/03/19 01:36:24;;;;;;;128.87;51.33;;;;;;;-2.56;69.44;98864.78;2161846;82;21249;-80
2021/03/19 01:39:26;;;;;;;134.33;52.17;;;;;;;-2.50;69.39;98865.55;2162006;82;21119;-80
2021/03/19 01:42:27;;;;;;;129.33;50.03;;;;;;;-2.46;69.35;98861.12;2161733;82;21563;-80
2021/03/19 01:45:28;;;;;;;126.87;47.43;;;;;;;-2.41;69.30;98864.45;2161117;82;21139;-80
2021/03/19 01:48:29;;;;;;;116.80;48.97;;;;;;;-2.36;69.27;98859.63;2161839;82;21269;-81
2021/03/19 01:51:30;;;;;;;113.67;46.57;;;;;;;-2.34;69.32;98851.66;2162045;82;21103;-81
2021/03/19 01:54:33;;;;;;;105.87;46.57;;;;;;;-2.33;69.22;98854.31;2162043;82;21273;-80
2021/03/19 01:57:34;;;;;;;116.80;50.53;;;;;;;-2.30;69.23;98854.89;2161220;82;21265;-80
2021/03/19 02:00:35;;;;;;;128.93;53.20;;;;;;;-2.31;69.21;98846.73;2161356;82;21524;-80
2021/03/19 02:03:36;;;;;;;119.30;51.77;;;;;;;-2.28;69.34;98855.88;2161868;82;21253;-79
2021/03/19 02:06:38;;;;;;;116.70;50.47;;;;;;;-2.26;69.49;98846.23;2161270;82;21273;-79
2021/03/19 02:09:39;;;;;;;121.13;51.07;;;;;;;-2.19;69.52;98849.16;2161969;82;21110;-80
2021/03/19 02:12:41;;;;;;;123.43;50.83;;;;;;;-2.15;69.64;98845.61;2161855;82;21276;-80
2021/03/19 02:15:42;;;;;;;107.20;49.43;;;;;;;-2.07;69.58;98849.52;2160928;82;21203;-80
2021/03/19 02:18:43;;;;;;;212.60;56.43;;;;;;;-2.05;69.52;98850.49;2161133;82;21197;-80
2021/03/19 02:21:44;;;;;;;104.97;46.83;;;;;;;-2.02;69.62;98848.52;2160740;82;21258;-81
2021/03/19 02:24:45;;;;;;;113.80;49.33;;;;;;;-1.98;69.62;98850.08;2178022;81;21126;-81
2021/03/19 02:27:46;;;;;;;117.53;49.43;;;;;;;-1.94;69.50;98848.19;2177898;82;21121;-80
2021/03/19 02:30:47;;;;;;;118.30;49.03;;;;;;;-1.93;69.46;98843.56;2178892;82;21106;-80
2021/03/19 02:33:48;;;;;;;113.20;49.23;;;;;;;-1.92;69.43;98845.33;2178566;82;21153;-79
2021/03/19 02:36:49;;;;;;;114.87;48.87;;;;;;;-1.91;69.52;98847.48;2178540;82;21182;-79
2021/03/19 02:39:50;;;;;;;115.67;48.37;;;;;;;-1.90;69.51;98845.42;2178458;82;21149;-79
2021/03/19 02:42:51;;;;;;;109.27;46.87;;;;;;;-1.89;69.54;98839.52;2179039;82;21420;-81
2021/03/19 02:45:53;;;;;;;99.03;45.33;;;;;;;-1.86;69.60;98834.58;2179035;82;21138;-80
2021/03/19 02:48:54;;;;;;;100.87;45.93;;;;;;;-1.85;69.58;98836.34;2178391;82;21141;-79
2021/03/19 02:51:55;;;;;;;127.63;46.53;;;;;;;-1.84;69.59;98838.51;2178816;82;21244;-80
2021/03/19 02:54:56;;;;;;;95.50;44.20;;;;;;;-1.83;69.67;98835.16;2179295;82;21142;-81
2021/03/19 02:57:57;;;;;;;97.10;42.60;;;;;;;-1.83;69.69;98830.92;2178379;82;21495;-79
2021/03/19 03:00:58;;;;;;;103.63;43.40;;;;;;;-1.82;69.73;98831.81;2178149;82;21483;-80
2021/03/19 03:03:59;;;;;;;96.83;44.00;;;;;;;-1.82;69.72;98831.81;2178718;82;21137;-80
2021/03/19 03:07:02;;;;;;;96.33;40.77;;;;;;;-1.79;69.65;98834.55;2179080;82;21156;-81
2021/03/19 03:10:03;;;;;;;94.87;42.33;;;;;;;-1.80;69.50;98840.45;2178873;82;21098;-80
2021/03/19 03:13:04;;;;;;;95.03;40.93;;;;;;;-1.81;69.40;98835.73;2178627;82;21129;-79
2021/03/19 03:16:05;;;;;;;108.87;49.17;;;;;;;-1.84;69.34;98845.79;2178829;82;21141;-79
2021/03/19 03:19:08;;;;;;;125.57;54.80;;;;;;;-1.86;69.56;98843.53;2179010;82;21901;-81
2021/03/19 03:22:09;;;;;;;135.20;54.53;;;;;;;-1.86;69.68;98842.65;2179279;82;21129;-79
2021/03/19 03:25:11;;;;;;;149.37;65.33;;;;;;;-1.85;69.64;98840.18;2178518;82;21221;-79
2021/03/19 03:28:12;;;;;;;155.73;67.03;;;;;;;-1.92;69.73;98846.61;2177986;82;21252;-80
2021/03/19 03:31:13;;;;;;;122.73;51.67;;;;;;;-1.96;69.87;98843.37;2178526;82;21173;-78
2021/03/19 03:34:14;;;;;;;155.80;59.13;;;;;;;-1.98;69.40;98844.08;2178733;82;21152;-79
2021/03/19 03:37:15;;;;;;;126.37;54.40;;;;;;;-2.07;69.47;98853.35;2178541;82;21161;-79
2021/03/19 03:40:16;;;;;;;129.87;57.40;;;;;;;-2.07;69.55;98852.47;2179013;82;21137;-79
2021/03/19 03:43:17;;;;;;;136.77;60.73;;;;;;;-2.11;69.51;98851.40;2179008;82;21409;-79
2021/03/19 03:46:18;;;;;;;134.33;59.33;;;;;;;-2.17;69.40;98851.03;2178855;82;21180;-80
2021/03/19 03:49:19;;;;;;;142.40;59.20;;;;;;;-2.22;69.35;98849.86;2178486;82;21138;-80
2021/03/19 03:52:20;;;;;;;146.43;60.50;;;;;;;-2.27;69.56;98858.92;2178479;82;21141;-81
2021/03/19 03:55:21;;;;;;;137.43;61.90;;;;;;;-2.28;69.58;98853.32;2178103;81;21150;-79
2021/03/19 03:58:22;;;;;;;242.83;123.70;;;;;;;-2.31;69.39;98848.90;2177507;82;21408;-79
2021/03/19 04:01:23;;;;;;;143.87;63.50;;;;;;;-2.34;69.29;98855.50;2178245;82;21613;-80
2021/03/19 04:04:24;;;;;;;140.73;58.87;;;;;;;-2.37;69.35;98860.02;2178247;82;21422;-79
2021/03/19 04:07:26;;;;;;;133.53;59.07;;;;;;;-2.37;69.42;98859.14;2178591;82;21163;-80
2021/03/19 04:10:27;;;;;;;158.47;62.10;;;;;;;-2.36;69.49;98851.56;2178475;82;21511;-80
2021/03/19 04:13:28;;;;;;;137.03;58.73;;;;;;;-2.37;69.64;98852.75;2178045;82;21443;-81
2021/03/19 04:16:29;;;;;;;148.33;58.37;;;;;;;-2.42;69.56;98849.91;2177756;82;21252;-81
2021/03/19 04:19:30;;;;;;;128.17;53.73;;;;;;;-2.49;69.51;98851.98;2177490;82;21137;-79
2021/03/19 04:22:32;;;;;;;125.17;56.23;;;;;;;-2.51;69.42;98854.84;2178369;81;21268;-79
2021/03/19 04:25:33;;;;;;;119.20;50.80;;;;;;;-2.64;69.38;98855.31;2178561;82;21171;-78
2021/03/19 04:28:34;;;;;;;114.83;51.73;;;;;;;-2.75;69.23;98858.86;2178445;82;21420;-79
2021/03/19 04:31:35;;;;;;;114.83;51.57;;;;;;;-2.85;69.36;98851.40;2178047;82;21641;-79
2021/03/19 04:34:36;;;;;;;112.93;51.00;;;;;;;-2.94;69.23;98855.53;2177497;82;21423;-79
2021/03/19 04:37:37;;;;;;;215.43;52.37;;;;;;;-3.06;68.80;98856.41;2178242;82;21551;-82
2021/03/19 04:40:38;;;;;;;100.50;44.70;;;;;;;-3.18;69.43;98856.89;2177188;82;21098;-79
2021/03/19 04:43:39;;;;;;;133.90;46.50;;;;;;;-3.28;69.20;98856.68;2176449;82;21126;-79
2021/03/19 04:46:40;;;;;;;168.33;51.73;;;;;;;-3.37;69.62;98863.34;2175662;82;21284;-80
2021/03/19 04:49:41;;;;;;;103.10;44.73;;;;;;;-3.38;69.71;98858.13;2175028;82;21257;-81
2021/03/19 04:52:42;;;;;;;114.77;46.37;;;;;;;-3.44;69.57;98869.22;2175432;82;21268;-79
2021/03/19 04:55:43;;;;;;;114.93;42.37;;;;;;;-3.50;69.45;98864.55;2176097;82;21416;-80
2021/03/19 04:58:44;;;;;;;119.10;44.83;;;;;;;-3.53;69.54;98870.34;2175728;82;21201;-79
2021/03/19 05:01:45;;;;;;;110.93;43.63;;;;;;;-3.51;69.67;98871.72;2174708;82;21582;-79
2021/03/19 05:04:46;;;;;;;96.80;43.97;;;;;;;-3.45;69.75;98873.83;2174616;82;21262;-79
2021/03/19 05:07:47;;;;;;;93.47;41.30;;;;;;;-3.37;69.46;98876.10;2175090;82;21243;-79
2021/03/19 05:10:48;;;;;;;89.40;41.83;;;;;;;-3.33;69.44;98875.91;2175562;82;21813;-79
2021/03/19 05:13:49;;;;;;;108.53;45.40;;;;;;;-3.25;69.50;98878.19;2176315;82;21249;-79
2021/03/19 05:16:50;;;;;;;94.37;43.53;;;;;;;-3.11;69.56;98878.20;2176248;82;21090;-80
2021/03/19 05:19:51;;;;;;;143.27;48.90;;;;;;;-2.98;69.52;98881.66;2176380;82;21146;-78
2021/03/19 05:22:52;;;;;;;136.70;52.03;;;;;;;-2.83;69.26;98875.77;2174151;81;21459;-79
2021/03/19 05:25:54;;;;;;;99.80;47.10;;;;;;;-2.67;69.46;98876.84;2158502;82;21651;-79
2021/03/19 05:28:55;;;;;;;119.23;55.00;;;;;;;-2.52;69.37;98870.57;2158749;82;21334;-79
2021/03/19 05:31:57;;;;;;;134.33;59.67;;;;;;;-2.35;69.52;98878.02;2159179;82;21599;-78
2021/03/19 05:34:58;;;;;;;105.50;48.53;;;;;;;-2.15;69.94;98872.46;2159162;82;21241;-79
2021/03/19 05:37:59;;;;;;;95.43;46.97;;;;;;;-1.95;69.96;98877.12;2158281;82;21166;-79
2021/03/19 05:41:00;;;;;;;104.37;47.87;;;;;;;-1.82;69.98;98875.30;2158419;82;21115;-79
2021/03/19 05:44:01;;;;;;;103.33;50.17;;;;;;;-1.66;69.99;98881.86;2157716;82;21245;-79
2021/03/19 05:47:02;;;;;;;121.97;52.30;;;;;;;-1.53;69.86;98875.41;2158722;82;21269;-80
2021/03/19 05:50:03;;;;;;;110.10;51.07;;;;;;;-1.35;69.93;98871.36;2158939;82;21300;-80
2021/03/19 05:53:04;;;;;;;102.70;55.20;;;;;;;-1.15;69.81;98872.91;2157807;82;21233;-78
2021/03/19 05:56:05;;;;;;;121.00;59.27;;;;;;;-0.93;69.69;98874.63;2157276;82;21241;-78
2021/03/19 05:59:06;;;;;;;143.87;69.20;;;;;;;-0.73;69.47;98879.23;2156513;82;21543;-78
2021/03/19 06:02:07;;;;;;;174.07;78.00;;;;;;;-0.54;69.51;98886.67;2156987;82;21268;-78
2021/03/19 06:05:09;;;;;;;173.30;90.00;;;;;;;-0.41;69.42;98895.53;2157538;82;21172;-77
2021/03/19 06:08:10;;;;;;;163.23;83.13;;;;;;;-0.30;69.18;98889.30;2157088;82;21213;-79
2021/03/19 06:11:11;;;;;;;184.40;91.20;;;;;;;-0.27;69.11;98895.00;2157572;82;21159;-78
2021/03/19 06:14:12;;;;;;;180.17;96.97;;;;;;;-0.18;69.07;98892.54;2158244;82;21272;-78
2021/03/19 06:17:13;;;;;;;201.87;103.40;;;;;;;-0.06;68.89;98890.64;2159343;82;21297;-79
2021/03/19 06:20:14;;;;;;;173.80;91.30;;;;;;;0.08;68.67;98894.38;2158498;82;21555;-77
2021/03/19 06:23:15;;;;;;;140.60;70.57;;;;;;;0.18;68.33;98896.23;2160421;82;21920;-77
2021/03/19 06:26:17;;;;;;;169.60;85.20;;;;;;;0.27;68.16;98900.97;2175319;82;21261;-78
2021/03/19 06:29:18;;;;;;;140.43;69.60;;;;;;;0.34;68.17;98899.20;2175539;82;21572;-78
2021/03/19 06:32:19;;;;;;;120.10;62.03;;;;;;;0.43;67.89;98900.97;2175358;82;21212;-78
2021/03/19 06:35:26;;;;;;;541.47;73.27;;;;;;;0.56;67.81;98899.92;2175119;82;21090;-78
2021/03/19 06:38:24;;;;;;;140.60;56.27;;;;;;;0.67;67.69;98905.20;2175139;81;21158;-79
2021/03/19 06:41:25;;;;;;;101.00;55.53;;;;;;;0.72;67.45;98910.17;2176206;82;21256;-77
2021/03/19 06:44:26;;;;;;;122.80;70.87;;;;;;;0.75;67.23;98908.16;2176378;82;21123;-78
2021/03/19 06:47:27;;;;;;;88.70;51.17;;;;;;;0.78;66.89;98910.89;2176138;82;21260;-79
2021/03/19 06:50:30;;;;;;;509.03;64.97;;;;;;;0.95;66.96;98912.26;2177980;82;21241;-78
2021/03/19 06:53:32;;;;;;;240.10;52.87;;;;;;;1.13;66.49;98909.72;2176315;82;21583;-76
2021/03/19 06:56:32;;;;;;;63.67;36.37;;;;;;;1.25;66.17;98907.75;2174060;82;21278;-77
2021/03/19 06:59:34;;;;;;;67.23;36.53;;;;;;;1.31;65.83;98906.29;2175480;82;21165;-79
2021/03/19 07:02:35;;;;;;;70.40;34.30;;;;;;;1.30;65.96;98907.09;2175460;82;21118;-78
2021/03/19 07:05:36;;;;;;;51.33;31.60;;;;;;;1.22;65.93;98899.89;2175207;82;21102;-78
2021/03/19 07:08:37;;;;;;;54.50;32.03;;;;;;;1.27;66.18;98903.97;2174258;82;21126;-79
2021/03/19 07:11:38;;;;;;;51.07;30.93;;;;;;;1.41;65.98;98905.52;2175275;82;21275;-78
2021/03/19 07:14:40;;;;;;;81.17;37.97;;;;;;;1.50;65.80;98904.69;2175152;82;21942;-78
2021/03/19 07:17:41;;;;;;;48.40;27.07;;;;;;;1.76;65.73;98900.81;2174603;82;21452;-78
2021/03/19 07:20:42;;;;;;;43.47;25.20;;;;;;;1.90;64.92;98902.33;2174614;82;21281;-79
2021/03/19 07:23:43;;;;;;;43.20;28.23;;;;;;;2.04;64.82;98905.55;2172280;81;21154;-78
2021/03/19 07:26:44;;;;;;;35.30;22.17;;;;;;;2.25;64.06;98905.64;2157881;82;21692;-79
2021/03/19 07:29:45;;;;;;;29.87;19.83;;;;;;;2.52;63.62;98904.30;2159328;82;21268;-79
2021/03/19 07:32:46;;;;;;;30.83;20.17;;;;;;;2.79;62.96;98903.77;2157797;82;21328;-79
2021/03/19 07:35:48;;;;;;;30.23;19.40;;;;;;;3.20;61.80;98912.85;2158314;82;21745;-78
2021/03/19 07:38:50;;;;;;;26.80;18.07;;;;;;;3.39;61.18;98909.73;2159212;82;21305;-78
2021/03/19 07:41:51;;;;;;;38.20;20.10;;;;;;;3.87;61.01;98904.80;2158988;82;21147;-78
2021/03/19 07:44:52;;;;;;;29.20;17.27;;;;;;;4.32;60.52;98900.09;2158698;82;22072;-78
2021/03/19 07:47:53;;;;;;;22.47;15.07;;;;;;;4.37;58.95;98901.17;2156949;82;21130;-77
2021/03/19 07:50:54;;;;;;;29.63;17.00;;;;;;;4.21;58.51;98901.81;2157574;82;21130;-78
2021/03/19 07:53:56;;;;;;;26.07;16.73;;;;;;;3.78;56.91;98904.03;2158011;82;21948;-78
2021/03/19 07:56:57;;;;;;;24.50;15.93;;;;;;;3.44;56.82;98906.94;2157576;82;21113;-78
2021/03/19 07:59:58;;;;;;;22.50;15.17;;;;;;;3.06;57.92;98905.35;2158033;82;21296;-77
2021/03/19 08:02:59;;;;;;;16.87;12.33;;;;;;;2.90;58.59;98910.27;2157395;82;21191;-78
2021/03/19 08:06:00;;;;;;;14.63;10.50;;;;;;;3.02;57.85;98908.62;2157917;82;21170;-78
2021/03/19 08:09:01;;;;;;;16.63;11.37;;;;;;;2.98;56.38;98910.19;2157069;82;21696;-77
2021/03/19 08:12:02;;;;;;;20.53;12.50;;;;;;;2.92;56.26;98912.50;2157389;82;21276;-78
2021/03/19 08:15:05;;;;;;;17.97;12.30;;;;;;;2.87;56.36;98913.59;2157626;82;21245;-77
2021/03/19 08:18:06;;;;;;;23.83;16.43;;;;;;;2.83;57.11;98903.09;2157388;82;21296;-78
2021/03/19 08:21:07;;;;;;;39.67;23.03;;;;;;;2.82;57.98;98907.77;2157583;82;21129;-77
2021/03/19 08:24:08;;;;;;;37.83;25.53;;;;;;;2.69;58.17;98907.64;2157454;81;21681;-77
2021/03/19 08:27:10;;;;;;;43.97;25.07;;;;;;;2.53;58.95;98911.63;2157438;82;21300;-77
2021/03/19 08:30:11;;;;;;;51.93;25.67;;;;;;;2.54;59.49;98911.69;2157641;82;21237;-77
2021/03/19 08:33:14;;;;;;;49.47;27.33;;;;;;;2.52;59.20;98914.61;2158032;82;21099;-77
2021/03/19 08:36:15;;;;;;;31.27;19.70;;;;;;;2.56;59.25;98913.92;2157317;82;21261;-77
2021/03/19 08:39:16;;;;;;;28.70;17.80;;;;;;;2.82;58.95;98910.34;2158485;82;21175;-78
2021/03/19 08:42:17;;;;;;;29.97;17.27;;;;;;;3.03;58.44;98902.23;2157494;82;21257;-77
2021/03/19 08:45:19;;;;;;;16.67;13.00;;;;;;;3.14;56.39;98907.44;2156967;82;21254;-77
2021/03/19 08:48:21;;;;;;;19.77;12.73;;;;;;;3.09;56.09;98901.61;2156814;82;21252;-77
2021/03/19 08:51:22;;;;;;;25.73;14.83;;;;;;;3.21;56.60;98908.57;2157189;82;21099;-78
2021/03/19 08:54:26;;;;;;;20.93;13.43;;;;;;;3.38;56.20;98901.52;2157306;82;21126;-77
2021/03/19 08:57:27;;;;;;;19.07;11.50;;;;;;;3.30;55.31;98902.91;2156871;82;21190;-78
2021/03/19 09:00:32;;;;;;;378.97;106.50;;;;;;;3.03;53.67;98904.81;2157114;82;21284;-78
2021/03/19 09:03:33;;;;;;;35.63;13.27;;;;;;;2.76;53.50;98910.08;2156043;82;21523;-78
2021/03/19 09:06:34;;;;;;;13.40;9.13;;;;;;;2.66;54.62;98906.62;2155414;82;21934;-78
2021/03/19 09:09:36;;;;;;;67.70;34.60;;;;;;;2.65;54.38;98911.31;2155666;82;21479;-78
2021/03/19 09:12:37;;;;;;;31.07;12.10;;;;;;;2.74;53.82;98908.73;2156621;82;21257;-77
2021/03/19 09:15:39;;;;;;;20.07;10.97;;;;;;;2.81;54.15;98911.16;2158099;82;21258;-78
2021/03/19 09:18:41;;;;;;;13.33;9.63;;;;;;;2.86;54.59;98911.83;2157395;82;21301;-78
2021/03/19 09:21:42;;;;;;;19.57;10.03;;;;;;;3.11;54.29;98907.72;2157141;82;21602;-77
2021/03/19 09:24:46;;;;;;;62.93;12.00;;;;;;;3.36;54.64;98913.48;2159131;81;21151;-78
2021/03/19 09:27:46;;;;;;;24.20;9.33;;;;;;;3.73;54.12;98899.98;2167371;81;21257;-78
2021/03/19 09:30:47;;;;;;;11.83;8.03;;;;;;;4.01;52.50;98898.06;2166321;82;21476;-77
2021/03/19 09:33:48;;;;;;;30.83;9.87;;;;;;;4.19;52.55;98900.87;2166757;82;21527;-78
2021/03/19 09:36:51;;;;;;;16.40;8.37;;;;;;;4.37;52.26;98899.00;2166958;82;21519;-78
2021/03/19 09:39:52;;;;;;;16.80;7.60;;;;;;;4.56;50.73;98900.55;2167352;82;21178;-76
2021/03/19 09:42:53;;;;;;;10.53;8.33;;;;;;;4.64;49.72;98904.30;2167699;82;21261;-78
2021/03/19 09:45:54;;;;;;;23.73;7.87;;;;;;;4.58;49.38;98901.48;2168050;82;21131;-77
2021/03/19 09:48:55;;;;;;;13.37;8.20;;;;;;;4.69;49.34;98897.59;2167336;82;21264;-78
2021/03/19 09:51:56;;;;;;;10.07;7.70;;;;;;;4.75;49.43;98896.09;2168497;82;21268;-78
2021/03/19 09:54:57;;;;;;;13.07;9.10;;;;;;;4.96;49.17;98897.67;2169124;82;21495;-78
2021/03/19 09:58:00;;;;;;;17.27;8.63;;;;;;;4.90;47.70;98897.05;2168429;82;21915;-77
2021/03/19 10:01:02;;;;;;;27.83;8.50;;;;;;;4.73;48.00;98902.04;2168454;82;21145;-78
2021/03/19 10:04:03;;;;;;;12.00;8.43;;;;;;;4.58;48.33;98898.49;2168707;82;21121;-78
2021/03/19 10:07:07;;;;;;;9.70;7.63;;;;;;;4.56;48.57;98899.27;2168423;82;21721;-77
2021/03/19 10:10:07;;;;;;;9.47;7.20;;;;;;;4.68;48.65;98900.58;2167912;82;21687;-79
2021/03/19 10:13:08;;;;;;;884.97;78.13;;;;;;;5.03;48.51;98900.52;2168279;82;21260;-79
2021/03/19 10:16:09;;;;;;;9.07;4.87;;;;;;;5.51;47.00;98889.20;2168927;81;21130;-79
2021/03/19 10:19:11;;;;;;;6.23;4.93;;;;;;;5.83;44.06;98896.70;2168201;82;21308;-79
2021/03/19 10:22:12;;;;;;;5.80;5.10;;;;;;;6.04;43.50;98885.73;2167949;82;21249;-78
2021/03/19 10:25:13;;;;;;;5.97;4.97;;;;;;;6.48;42.69;98896.14;2169971;81;21273;-78
2021/03/19 10:28:16;;;;;;;7.47;5.93;;;;;;;6.65;42.95;98885.82;2175598;81;21124;-79
2021/03/19 10:31:18;;;;;;;8.57;4.90;;;;;;;6.61;41.96;98896.95;2175180;81;21280;-78
2021/03/19 10:34:19;;;;;;;6.10;4.80;;;;;;;6.39;38.36;98896.75;2174418;81;21126;-78
2021/03/19 10:37:20;;;;;;;5.53;4.90;;;;;;;5.66;39.58;98897.05;2175052;81;21312;-78
2021/03/19 10:40:21;;;;;;;16.10;6.27;;;;;;;5.11;42.04;98898.20;2175092;82;21264;-78
2021/03/19 10:43:24;;;;;;;11.27;8.10;;;;;;;4.85;42.76;98903.77;2174986;81;21937;-77
2021/03/19 10:46:25;;;;;;;10.33;5.70;;;;;;;4.69;42.87;98901.05;2175662;82;21252;-78
2021/03/19 10:49:26;;;;;;;6.67;5.40;;;;;;;4.53;42.99;98905.20;2175681;82;21299;-78
2021/03/19 10:52:28;;;;;;;7.97;6.00;;;;;;;4.36;43.51;98905.88;2175964;81;21252;-78
2021/03/19 10:55:31;;;;;;;11.00;7.70;;;;;;;4.28;43.88;98905.97;2174759;81;21598;-77
2021/03/19 10:58:32;;;;;;;17.60;9.10;;;;;;;4.23;44.08;98910.09;2174244;81;21634;-77
2021/03/19 11:01:34;;;;;;;11.70;7.47;;;;;;;4.23;44.77;98905.33;2174110;81;21098;-78
2021/03/19 11:04:35;;;;;;;11.33;7.87;;;;;;;4.29;45.14;98899.98;2175091;81;21257;-78
2021/03/19 11:07:38;;;;;;;27.63;8.57;;;;;;;4.33;45.13;98910.90;2173397;81;21271;-78
2021/03/19 11:10:40;;;;;;;18.70;9.83;;;;;;;4.24;45.05;98909.27;2172670;81;21146;-77
2021/03/19 11:13:41;;;;;;;10.77;7.80;;;;;;;4.29;44.68;98913.31;2173896;81;21630;-77
2021/03/19 11:16:43;;;;;;;19.23;8.67;;;;;;;4.22;45.48;98904.86;2173893;81;21248;-78
2021/03/19 11:19:44;;;;;;;8.43;6.77;;;;;;;4.33;46.12;98905.73;2174332;81;21173;-77
2021/03/19 11:22:45;;;;;;;7.83;6.33;;;;;;;4.54;45.32;98910.84;2174215;81;21249;-77
2021/03/19 11:25:46;;;;;;;6.83;5.20;;;;;;;4.74;45.07;98899.92;2174191;81;21153;-77
2021/03/19 11:28:47;;;;;;;9.53;4.97;;;;;;;4.98;44.45;98898.19;2174360;81;21240;-78
2021/03/19 11:31:48;;;;;;;7.30;4.93;;;;;;;5.34;44.21;98897.70;2174678;82;21134;-78
2021/03/19 11:34:49;;;;;;;7.33;5.60;;;;;;;5.59;43.07;98898.09;2174109;82;21677;-77
2021/03/19 11:37:50;;;;;;;5.93;4.67;;;;;;;5.79;42.59;98899.61;2174558;81;21307;-74
2021/03/19 11:40:51;;;;;;;12.23;5.57;;;;;;;5.89;41.05;98897.80;2174332;81;21120;-77
2021/03/19 11:43:52;;;;;;;6.47;5.13;;;;;;;5.94;41.50;98892.76;2174954;81;21245;-77
2021/03/19 11:46:53;;;;;;;101.17;10.40;;;;;;;6.23;40.28;98900.15;2175055;81;21251;-77
2021/03/19 11:49:54;;;;;;;7.43;5.37;;;;;;;6.32;40.68;98896.11;2174775;82;21253;-77
2021/03/19 11:52:55;;;;;;;8.30;5.60;;;;;;;6.32;39.63;98894.81;2174325;81;21110;-78
2021/03/19 11:55:57;;;;;;;8.37;4.60;;;;;;;6.09;39.25;98897.56;2174739;81;21320;-77
2021/03/19 11:58:58;;;;;;;9.03;6.03;;;;;;;5.98;40.17;98882.95;2173876;81;21491;-77
2021/03/19 12:02:02;;;;;;;14.83;9.80;;;;;;;5.28;41.05;98902.69;2174754;81;21571;-77
2021/03/19 12:05:02;;;;;;;13.23;10.03;;;;;;;5.28;41.05;98902.69;2174288;81;21711;-78
2021/03/19 12:08:04;;;;;;;11.93;8.70;;;;;;;4.91;41.56;98905.27;2174220;82;21280;-78
2021/03/19 12:11:05;;;;;;;18.23;12.93;;;;;;;4.61;41.96;98894.72;2174530;81;21249;-78
2021/03/19 12:14:08;;;;;;;14.67;9.93;;;;;;;4.61;42.52;98900.31;2174421;82;21134;-78
2021/03/19 12:17:09;;;;;;;36.07;8.47;;;;;;;4.43;42.48;98896.64;2174936;81;21284;-78
2021/03/19 12:20:11;;;;;;;18.40;12.53;;;;;;;4.21;42.91;98907.86;2175087;81;21258;-77
2021/03/19 12:23:12;;;;;;;11.57;5.67;;;;;;;4.03;43.48;98915.78;2174629;82;21240;-79
2021/03/19 12:26:13;;;;;;;9.90;6.30;;;;;;;3.89;43.55;98916.95;2173322;81;21269;-78
2021/03/19 12:29:14;;;;;;;8.83;5.60;;;;;;;3.75;44.25;98923.28;2174535;81;21252;-77
2021/03/19 12:32:15;;;;;;;13.07;11.17;;;;;;;3.75;43.24;98912.95;2174600;81;21260;-79
2021/03/19 12:35:16;;;;;;;16.50;12.10;;;;;;;3.99;43.49;98902.70;2174386;82;21268;-79
2021/03/19 12:38:17;;;;;;;12.80;10.23;;;;;;;4.31;43.11;98905.20;2174273;82;21166;-78
2021/03/19 12:41:18;;;;;;;9.13;6.83;;;;;;;4.61;43.48;98902.89;2174109;82;21260;-78
2021/03/19 12:44:19;;;;;;;5.87;4.60;;;;;;;4.90;42.41;98902.22;2174307;81;21244;-77
2021/03/19 12:47:20;;;;;;;13.17;7.87;;;;;;;5.09;41.99;98894.27;2174107;81;21281;-76
2021/03/19 12:50:21;;;;;;;6.03;4.63;;;;;;;5.24;42.14;98900.41;2173789;81;21268;-78
2021/03/19 12:53:22;;;;;;;8.23;5.27;;;;;;;5.11;40.78;98895.61;2174515;81;21098;-77
2021/03/19 12:56:24;;;;;;;10.63;6.43;;;;;;;4.88;40.50;98899.11;2174282;81;21280;-77
2021/03/19 12:59:28;;;;;;;13.80;10.30;;;;;;;4.83;41.09;98901.54;2174152;81;21872;-77
2021/03/19 13:02:29;;;;;;;10.35;7.50;;;;;;;4.78;41.02;98894.03;2173422;82;21122;-77
2021/03/19 13:05:30;;;;;;;5.70;4.60;;;;;;;4.72;41.85;98904.16;2171857;81;21228;-78
2021/03/19 13:08:31;;;;;;;14.07;5.00;;;;;;;4.63;41.89;98898.25;2172453;81;21260;-78
2021/03/19 13:11:32;;;;;;;6.10;4.80;;;;;;;4.56;42.69;98909.19;2172803;81;21244;-79
2021/03/19 13:14:33;;;;;;;14.63;9.90;;;;;;;4.50;43.34;98900.33;2173596;81;21117;-79
2021/03/19 13:17:34;;;;;;;21.70;11.30;;;;;;;4.53;43.97;98899.16;2173477;81;21312;-78
2021/03/19 13:20:35;;;;;;;15.43;7.20;;;;;;;4.42;42.77;98894.88;2175539;82;22040;-79
2021/03/19 13:23:36;;;;;;;7.87;5.50;;;;;;;4.26;43.48;98895.98;2175371;81;21582;-79
2021/03/19 13:26:39;;;;;;;6.23;4.60;;;;;;;4.12;41.83;98900.64;2167381;81;21767;-78
2021/03/19 13:29:40;;;;;;;8.07;5.40;;;;;;;4.00;42.52;98900.58;2158383;82;21107;-78
2021/03/19 13:32:43;;;;;;;8.80;6.43;;;;;;;3.88;42.71;98898.41;2157767;82;21208;-78
2021/03/19 13:35:44;;;;;;;6.63;4.60;;;;;;;3.93;43.53;98896.87;2157282;82;21268;-79
2021/03/19 13:38:45;;;;;;;4.37;3.97;;;;;;;4.08;43.57;98895.30;2157026;82;21374;-78
2021/03/19 13:41:46;;;;;;;6.00;4.40;;;;;;;4.23;43.24;98882.08;2156771;82;21130;-79
2021/03/19 13:44:47;;;;;;;8.13;4.87;;;;;;;4.59;43.57;98878.69;2157734;82;21309;-79
2021/03/19 13:47:48;;;;;;;6.37;4.97;;;;;;;5.03;42.52;98879.83;2157719;82;21135;-78
2021/03/19 13:50:49;;;;;;;8.10;5.40;;;;;;;5.34;41.54;98879.59;2158168;82;21253;-79
2021/03/19 13:53:50;;;;;;;6.13;5.30;;;;;;;5.57;40.46;98877.33;2157975;82;21821;-79
2021/03/19 13:56:52;;;;;;;6.20;4.33;;;;;;;5.87;40.59;98870.05;2158571;82;21292;-79
2021/03/19 13:59:53;;;;;;;7.47;4.50;;;;;;;5.87;40.59;98870.05;2158458;82;21873;-79